createdAt,value
2023-03-12T00:01:38.211Z,30.00
2023-03-12T00:04:08.457Z,32.30
2023-03-12T00:06:43.390Z,28.70
2023-03-12T00:09:12.497Z,20.40
2023-03-12T00:11:42.216Z,20.23
2023-03-12T00:14:11.326Z,19.38
2023-03-12T00:16:41.840Z,16.92
2023-03-12T00:19:14.652Z,16.02
2023-03-12T00:21:45.900Z,26.13
2023-03-12T00:24:15.094Z,31.95
2023-03-12T00:26:44.031Z,17.55
2023-03-12T00:29:14.692Z,11.18
2023-03-12T00:31:44.302Z,15.65
2023-03-12T00:34:13.948Z,16.77
2023-03-12T00:36:45.852Z,23.30
2023-03-12T00:39:15.706Z,35.40
2023-03-12T00:41:44.913Z,34.97
2023-03-12T00:44:14.402Z,35.35
2023-03-12T00:46:43.686Z,26.05
2023-03-12T00:49:13.729Z,15.70
2023-03-12T00:51:44.207Z,41.47
2023-03-12T00:54:13.306Z,34.42
2023-03-12T00:56:43.281Z,27.65
2023-03-12T00:59:13.708Z,37.33
2023-03-12T01:01:43.974Z,13.88
2023-03-12T01:04:18.084Z,31.95
2023-03-12T01:06:49.304Z,14.35
2023-03-12T01:09:18.742Z,81.57
2023-03-12T01:11:48.637Z,40.03
2023-03-12T01:14:17.892Z,33.72
2023-03-12T01:16:47.009Z,22.80
2023-03-12T01:19:17.056Z,21.63
2023-03-12T01:21:46.473Z,13.98
2023-03-12T01:24:18.275Z,28.98
2023-03-12T01:26:47.885Z,31.10
2023-03-12T01:29:19.511Z,15.73
2023-03-12T01:31:50.910Z,15.07
2023-03-12T01:34:20.663Z,83.43
2023-03-12T01:36:51.112Z,92.95
2023-03-12T01:39:22.108Z,31.50
2023-03-12T01:41:54.340Z,28.65
2023-03-12T01:44:25.122Z,61.13
2023-03-12T01:46:57.344Z,62.08
2023-03-12T01:49:29.626Z,27.55
2023-03-12T01:52:04.432Z,33.95
2023-03-12T01:54:46.604Z,30.20
2023-03-12T01:57:20.828Z,16.70
2023-03-12T01:59:54.473Z,10.63
2023-03-12T02:02:27.534Z,11.18
2023-03-12T02:05:05.424Z,10.25
2023-03-12T02:07:36.381Z,12.55
2023-03-12T02:10:07.970Z,9.57
2023-03-12T02:12:36.541Z,60.28
2023-03-12T02:15:06.376Z,70.75
2023-03-12T02:17:35.467Z,33.10
2023-03-12T02:20:16.326Z,26.35
2023-03-12T02:22:51.351Z,60.30
2023-03-12T02:25:32.957Z,16.38
2023-03-12T02:28:04.620Z,16.23
2023-03-12T02:30:35.685Z,30.70
2023-03-12T02:33:09.113Z,252.93
2023-03-12T02:35:38.889Z,107.28
2023-03-12T02:38:36.255Z,53.90
2023-03-12T02:41:11.439Z,144.80
2023-03-12T02:43:41.258Z,147.65
2023-03-12T02:46:10.032Z,139.75
2023-03-12T02:48:38.290Z,86.50
2023-03-12T02:51:07.324Z,82.60
2023-03-12T02:53:35.864Z,24.88
2023-03-12T02:56:06.149Z,55.08
2023-03-12T02:58:34.393Z,23.17
2023-03-12T03:01:02.695Z,51.20
2023-03-12T03:03:31.070Z,99.85
2023-03-12T03:05:59.588Z,81.03
2023-03-12T03:08:27.825Z,56.47
2023-03-12T03:10:57.377Z,39.15
2023-03-12T03:13:27.095Z,24.50
2023-03-12T03:15:57.941Z,13.45
2023-03-12T03:18:26.446Z,78.00
2023-03-12T03:20:59.463Z,73.32
2023-03-12T03:23:27.862Z,30.92
2023-03-12T03:25:56.759Z,10.63
2023-03-12T03:28:29.409Z,9.20
2023-03-12T03:31:01.466Z,8.57
2023-03-12T03:33:30.570Z,12.35
2023-03-12T03:36:01.579Z,8.93
2023-03-12T03:38:31.528Z,13.68
2023-03-12T03:41:00.147Z,6.68
2023-03-12T03:43:29.619Z,7.82
2023-03-12T03:46:04.763Z,9.82
2023-03-12T03:48:33.354Z,6.95
2023-03-12T03:51:02.666Z,9.57
2023-03-12T03:53:31.330Z,9.27
2023-03-12T03:55:59.496Z,6.38
2023-03-12T03:58:29.096Z,7.88
2023-03-12T04:00:57.108Z,9.98
2023-03-12T04:03:25.416Z,8.27
2023-03-12T04:05:56.413Z,9.57
2023-03-12T04:08:24.692Z,11.07
2023-03-12T04:10:53.171Z,7.45
2023-03-12T04:13:21.557Z,10.25
2023-03-12T04:15:53.141Z,11.25
2023-03-12T04:18:21.579Z,10.18
2023-03-12T04:20:49.937Z,14.10
2023-03-12T04:23:18.118Z,8.95
2023-03-12T04:25:46.229Z,6.03
2023-03-12T04:28:14.388Z,12.40
2023-03-12T04:30:42.517Z,7.72
2023-03-12T04:33:12.300Z,4.75
2023-03-12T04:35:40.469Z,7.13
2023-03-12T04:38:08.694Z,8.93
2023-03-12T04:40:36.963Z,6.20
2023-03-12T04:43:07.743Z,4.63
2023-03-12T04:45:35.920Z,4.32
2023-03-12T04:48:04.519Z,5.15
2023-03-12T04:50:34.228Z,14.18
2023-03-12T04:53:02.810Z,6.10
2023-03-12T04:55:31.137Z,4.03
2023-03-12T04:57:59.251Z,6.78
2023-03-12T05:00:28.031Z,5.53
2023-03-12T05:02:56.410Z,6.70
2023-03-12T05:05:24.994Z,7.90
2023-03-12T05:07:54.737Z,6.75
2023-03-12T05:10:22.962Z,5.88
2023-03-12T05:12:51.108Z,5.65
2023-03-12T05:15:20.007Z,8.45
2023-03-12T05:17:48.227Z,5.60
2023-03-12T05:20:17.860Z,5.60
2023-03-12T05:22:46.440Z,6.43
2023-03-12T05:25:16.165Z,7.53
2023-03-12T05:27:44.253Z,9.88
2023-03-12T05:30:13.487Z,7.43
2023-03-12T05:32:41.905Z,4.15
2023-03-12T05:35:10.908Z,5.65
2023-03-12T05:37:39.021Z,4.50
2023-03-12T05:40:09.380Z,8.25
2023-03-12T05:42:39.196Z,5.63
2023-03-12T05:45:08.706Z,5.45
2023-03-12T05:47:36.929Z,4.93
2023-03-12T05:50:05.624Z,4.80
2023-03-12T05:52:33.871Z,4.20
2023-03-12T05:55:01.874Z,7.40
2023-03-12T05:57:30.693Z,8.60
2023-03-12T06:00:00.346Z,5.20
2023-03-12T06:02:28.624Z,5.82
2023-03-12T06:04:58.529Z,4.65
2023-03-12T06:07:27.209Z,5.68
2023-03-12T06:09:56.817Z,5.50
2023-03-12T06:12:25.172Z,5.13
2023-03-12T06:14:53.226Z,6.43
2023-03-12T06:17:22.741Z,5.18
2023-03-12T06:19:52.811Z,4.15
2023-03-12T06:22:22.196Z,3.97
2023-03-12T06:24:50.737Z,3.58
2023-03-12T06:27:19.153Z,3.03
2023-03-12T06:29:47.682Z,5.10
2023-03-12T06:32:16.028Z,7.65
2023-03-12T06:34:46.005Z,3.08
2023-03-12T06:37:14.161Z,4.30
2023-03-12T06:39:42.236Z,5.65
2023-03-12T06:42:12.945Z,4.60
2023-03-12T06:44:40.942Z,5.05
2023-03-12T06:47:09.019Z,4.65
2023-03-12T06:49:37.665Z,4.32
2023-03-12T06:52:07.576Z,7.43
2023-03-12T06:54:35.788Z,4.38
2023-03-12T06:57:04.064Z,4.03
2023-03-12T06:59:32.650Z,4.63
2023-03-12T07:02:00.905Z,4.43
2023-03-12T07:04:29.242Z,4.72
2023-03-12T07:06:57.474Z,5.05
2023-03-12T07:09:27.056Z,6.32
2023-03-12T07:11:55.397Z,8.85
2023-03-12T07:14:23.608Z,2.90
2023-03-12T07:16:51.698Z,3.33
2023-03-12T07:19:19.914Z,2.65
2023-03-12T07:21:48.012Z,3.05
2023-03-12T07:24:16.214Z,4.80
2023-03-12T07:26:46.239Z,4.55
2023-03-12T07:29:14.480Z,6.57
2023-03-12T07:31:42.655Z,5.47
2023-03-12T07:34:10.923Z,2.95
2023-03-12T07:36:39.819Z,4.90
2023-03-12T07:39:09.070Z,4.70
2023-03-12T07:41:39.129Z,4.72
2023-03-12T07:44:09.716Z,3.38
2023-03-12T07:46:38.371Z,8.07
2023-03-12T07:49:06.844Z,5.53
2023-03-12T07:51:34.994Z,2.72
2023-03-12T07:54:03.744Z,7.13
2023-03-12T07:56:33.794Z,3.13
2023-03-12T07:59:03.265Z,3.17
2023-03-12T08:01:33.101Z,3.55
2023-03-12T08:04:02.163Z,3.97
2023-03-12T08:06:31.013Z,3.47
2023-03-12T08:08:59.285Z,5.30
2023-03-12T08:11:27.477Z,2.55
2023-03-12T08:13:55.807Z,6.15
2023-03-12T08:16:24.186Z,4.63
2023-03-12T08:18:54.025Z,5.07
2023-03-12T08:21:22.402Z,4.00
2023-03-12T08:23:50.863Z,4.88
2023-03-12T08:26:18.984Z,3.20
2023-03-12T08:28:47.124Z,4.97
2023-03-12T08:31:15.581Z,5.72
2023-03-12T08:33:43.850Z,3.78
2023-03-12T08:36:13.244Z,4.15
2023-03-12T08:38:41.792Z,4.60
2023-03-12T08:41:10.430Z,6.05
2023-03-12T08:43:38.843Z,5.93
2023-03-12T08:46:07.271Z,6.72
2023-03-12T08:48:35.770Z,2.88
2023-03-12T08:51:06.160Z,2.75
2023-03-12T08:53:37.628Z,8.38
2023-03-12T08:56:07.064Z,5.10
2023-03-12T08:58:35.251Z,3.60
2023-03-12T09:01:03.467Z,5.60
2023-03-12T09:03:31.781Z,3.20
2023-03-12T09:06:09.852Z,3.05
2023-03-12T09:08:39.388Z,5.15
2023-03-12T09:11:08.362Z,3.28
2023-03-12T09:13:58.818Z,5.10
2023-03-12T09:16:25.048Z,6.03
2023-03-12T09:18:54.014Z,2.58
2023-03-12T09:21:22.609Z,3.03
2023-03-12T09:23:53.061Z,4.32
2023-03-12T09:26:21.331Z,2.72
2023-03-12T09:28:50.239Z,4.32
2023-03-12T09:31:18.549Z,3.25
2023-03-12T09:33:46.637Z,6.68
2023-03-12T09:36:14.862Z,4.82
2023-03-12T09:38:43.524Z,6.03
2023-03-12T09:41:20.954Z,5.70
2023-03-12T09:43:54.401Z,4.07
2023-03-12T09:46:28.038Z,4.82
2023-03-12T09:49:00.496Z,7.18
2023-03-12T09:51:34.822Z,4.90
2023-03-12T09:54:05.459Z,5.13
2023-03-12T09:56:35.831Z,2.90
2023-03-12T09:59:04.917Z,3.97
2023-03-12T10:01:43.279Z,2.00
2023-03-12T10:04:25.959Z,5.18
2023-03-12T10:06:59.566Z,3.90
2023-03-12T10:09:40.962Z,2.92
2023-03-12T10:12:19.953Z,2.28
2023-03-12T10:15:03.644Z,4.05
2023-03-12T10:17:51.230Z,2.83
2023-03-12T10:20:54.459Z,6.43
2023-03-12T10:23:32.169Z,2.58
2023-03-12T10:26:05.119Z,2.80
2023-03-12T10:28:39.105Z,3.28
2023-03-12T10:33:46.261Z,2.75
2023-03-12T10:36:18.790Z,3.25
2023-03-12T10:38:48.861Z,2.90
2023-03-12T10:41:20.123Z,5.85
2023-03-12T10:43:50.031Z,3.67
2023-03-12T10:46:52.793Z,2.72
2023-03-12T10:49:31.752Z,2.28
2023-03-12T10:52:02.833Z,4.50
2023-03-12T10:54:34.009Z,4.68
2023-03-12T10:57:02.916Z,3.17
2023-03-12T10:59:35.440Z,2.67
2023-03-12T11:02:04.955Z,3.30
2023-03-12T11:04:34.368Z,5.05
2023-03-12T11:07:17.752Z,4.13
2023-03-12T11:09:46.487Z,4.20
2023-03-12T11:12:26.989Z,4.53
2023-03-12T11:14:56.599Z,8.02
2023-03-12T11:17:26.991Z,3.92
2023-03-12T11:19:55.455Z,5.28
2023-03-12T11:22:32.701Z,3.72
2023-03-12T11:25:02.374Z,3.05
2023-03-12T11:27:40.870Z,3.90
2023-03-12T11:30:14.364Z,3.83
2023-03-12T11:32:46.173Z,2.00
2023-03-12T11:35:17.314Z,3.25
2023-03-12T11:38:00.246Z,4.68
2023-03-12T11:40:50.527Z,7.47
2023-03-12T11:43:43.275Z,3.97
2023-03-12T11:46:28.436Z,2.97
2023-03-12T11:49:09.701Z,4.45
2023-03-12T11:51:47.011Z,3.53
2023-03-12T11:54:34.442Z,3.22
2023-03-12T11:57:07.526Z,3.58
2023-03-12T11:59:49.208Z,3.83
2023-03-12T12:02:32.913Z,5.10
2023-03-12T12:05:13.812Z,4.65
2023-03-12T12:07:59.133Z,6.10
2023-03-12T12:10:35.541Z,4.80
2023-03-12T12:13:12.161Z,10.98
2023-03-12T12:15:53.082Z,8.85
2023-03-12T12:18:50.106Z,5.28
2023-03-12T12:21:37.259Z,7.47
2023-03-12T12:24:18.669Z,7.07
2023-03-12T12:26:56.595Z,9.93
2023-03-12T12:29:36.608Z,6.40
2023-03-12T12:32:06.857Z,6.25
2023-03-12T12:35:09.174Z,9.68
2023-03-12T12:37:50.388Z,9.70
2023-03-12T12:40:24.534Z,7.22
2023-03-12T12:43:02.788Z,6.68
2023-03-12T12:45:31.313Z,9.55
2023-03-12T12:48:03.573Z,7.82
2023-03-12T12:50:36.649Z,7.47
2023-03-12T12:53:15.446Z,6.27
2023-03-12T12:55:51.533Z,7.70
2023-03-12T12:58:27.580Z,7.78
2023-03-12T13:01:00.157Z,9.48
2023-03-12T13:03:30.991Z,9.77
2023-03-12T13:06:03.481Z,6.93
2023-03-12T13:09:02.672Z,9.98
2023-03-12T13:11:41.226Z,10.98
2023-03-12T13:14:22.038Z,7.13
2023-03-12T13:16:52.381Z,7.95
2023-03-12T13:19:28.360Z,9.40
2023-03-12T13:22:16.898Z,6.82
2023-03-12T13:24:53.144Z,7.38
2023-03-12T13:27:25.761Z,5.97
2023-03-12T13:29:57.395Z,7.78
2023-03-12T13:33:01.960Z,9.13
2023-03-12T13:35:33.124Z,7.18
2023-03-12T13:38:06.929Z,5.15
2023-03-12T13:40:41.088Z,10.68
2023-03-12T13:43:15.163Z,6.65
2023-03-12T13:48:25.688Z,9.02
2023-03-12T13:50:56.574Z,8.57
2023-03-12T13:53:29.781Z,8.57
2023-03-12T13:56:06.744Z,7.13
2023-03-12T13:58:43.584Z,7.68
2023-03-12T14:01:18.326Z,6.88
2023-03-12T14:03:52.116Z,8.25
2023-03-12T14:06:25.552Z,8.85
2023-03-12T14:09:10.827Z,7.07
2023-03-12T14:11:51.970Z,7.72
2023-03-12T14:14:43.537Z,8.52
2023-03-12T14:17:18.684Z,9.88
2023-03-12T14:19:52.358Z,6.85
2023-03-12T14:22:23.879Z,4.30
2023-03-12T14:24:58.443Z,9.82
2023-03-12T14:27:30.597Z,7.53
2023-03-12T14:30:03.493Z,8.98
2023-03-12T14:32:34.896Z,6.75
2023-03-12T14:35:15.988Z,8.27
2023-03-12T14:37:48.635Z,6.93
2023-03-12T14:40:25.775Z,7.63
2023-03-12T14:42:56.716Z,8.07
2023-03-12T14:45:25.940Z,6.43
2023-03-12T14:47:56.452Z,5.43
2023-03-12T14:50:27.171Z,5.13
2023-03-12T14:53:14.162Z,5.53
2023-03-12T14:55:43.869Z,5.28
2023-03-12T14:58:19.130Z,6.43
2023-03-12T15:00:57.670Z,8.77
2023-03-12T15:03:27.687Z,6.85
2023-03-12T15:05:57.057Z,5.57
2023-03-12T15:08:26.473Z,5.85
2023-03-12T15:10:59.315Z,5.30
2023-03-12T15:13:29.371Z,9.90
2023-03-12T15:15:58.011Z,4.65
2023-03-12T15:18:29.445Z,4.50
2023-03-12T15:21:00.288Z,7.40
2023-03-12T15:23:32.248Z,30.13
2023-03-12T15:26:27.397Z,9.75
2023-03-12T15:29:01.231Z,6.82
2023-03-12T15:31:29.486Z,10.02
2023-03-12T15:34:05.860Z,5.97
2023-03-12T15:36:36.216Z,5.63
2023-03-12T15:39:15.507Z,19.17
2023-03-12T15:41:49.153Z,5.82
2023-03-12T15:44:23.037Z,6.15
2023-03-12T15:46:53.848Z,4.35
2023-03-12T15:49:26.912Z,7.47
2023-03-12T15:52:26.879Z,3.28
2023-03-12T15:55:04.322Z,7.18
2023-03-12T15:57:35.971Z,2.75
2023-03-12T16:00:20.008Z,4.03
2023-03-12T16:02:51.423Z,5.68
2023-03-12T16:05:21.153Z,5.93
2023-03-12T16:07:49.984Z,2.88
2023-03-12T16:10:20.995Z,11.13
2023-03-12T16:12:51.855Z,83.35
2023-03-12T16:15:27.441Z,13.02
2023-03-12T16:17:55.797Z,14.77
2023-03-12T16:20:24.434Z,13.02
2023-03-12T16:22:52.935Z,6.20
2023-03-12T16:25:21.584Z,6.80
2023-03-12T16:27:54.345Z,41.28
2023-03-12T16:30:26.662Z,44.08
2023-03-12T16:32:55.951Z,13.13
2023-03-12T16:35:24.739Z,10.85
2023-03-12T16:37:54.289Z,10.60
2023-03-12T16:40:32.943Z,9.02
2023-03-12T16:43:06.999Z,3.85
2023-03-12T16:45:37.405Z,5.00
2023-03-12T16:48:07.876Z,5.00
2023-03-12T16:50:36.342Z,4.43
2023-03-12T16:53:05.097Z,6.10
2023-03-12T16:55:45.550Z,4.55
2023-03-12T16:58:18.658Z,5.53
2023-03-12T17:00:47.420Z,5.03
2023-03-12T17:03:22.250Z,8.77
2023-03-12T17:05:50.545Z,6.95
2023-03-12T17:08:18.797Z,6.32
2023-03-12T17:10:47.415Z,6.45
2023-03-12T17:13:24.086Z,6.00
2023-03-12T17:15:53.282Z,5.60
2023-03-12T17:18:22.869Z,8.27
2023-03-12T17:20:52.180Z,4.38
2023-03-12T17:23:20.765Z,4.45
2023-03-12T17:25:49.264Z,4.78
2023-03-12T17:28:18.029Z,6.63
2023-03-12T17:30:48.927Z,5.32
2023-03-12T17:33:19.604Z,4.60
2023-03-12T17:35:48.640Z,4.15
2023-03-12T17:38:16.893Z,5.55
2023-03-12T17:40:46.056Z,11.38
2023-03-12T17:43:14.713Z,6.60
2023-03-12T17:45:43.501Z,3.90
2023-03-12T17:48:13.097Z,6.90
2023-03-12T17:50:41.657Z,4.38
2023-03-12T17:53:10.064Z,3.92
2023-03-12T17:55:38.580Z,5.97
2023-03-12T17:58:07.433Z,3.70
2023-03-12T18:00:37.507Z,3.17
2023-03-12T18:03:05.915Z,4.22
2023-03-12T18:05:39.869Z,2.85
2023-03-12T18:08:08.237Z,5.80
2023-03-12T18:10:39.212Z,6.07
2023-03-12T18:13:07.830Z,5.47
2023-03-12T18:15:35.969Z,3.85
2023-03-12T18:18:04.081Z,9.75
2023-03-12T18:20:39.124Z,6.70
2023-03-12T18:23:09.394Z,6.80
2023-03-12T18:25:39.013Z,7.45
2023-03-12T18:28:07.610Z,6.05
2023-03-12T18:30:36.684Z,4.53
2023-03-12T18:33:05.205Z,4.82
2023-03-12T18:35:33.367Z,7.68
2023-03-12T18:38:02.042Z,6.38
2023-03-12T18:40:33.263Z,6.55
2023-03-12T18:43:02.790Z,6.53
2023-03-12T18:45:31.532Z,5.03
2023-03-12T18:48:00.124Z,8.68
2023-03-12T18:50:28.471Z,5.10
2023-03-12T18:52:58.049Z,4.78
2023-03-12T18:55:26.581Z,7.68
2023-03-12T18:57:56.182Z,10.68
2023-03-12T19:00:24.922Z,7.57
2023-03-12T19:02:53.145Z,6.00
2023-03-12T19:05:21.651Z,10.93
2023-03-12T19:07:50.671Z,6.28
2023-03-12T19:10:18.925Z,6.70
2023-03-12T19:12:53.113Z,5.88
2023-03-12T19:15:25.236Z,4.15
2023-03-12T19:17:54.474Z,4.63
2023-03-12T19:20:23.123Z,4.47
2023-03-12T19:22:51.491Z,6.32
2023-03-12T19:25:20.919Z,7.07
2023-03-12T19:27:49.490Z,6.55
2023-03-12T19:30:17.987Z,9.38
2023-03-12T19:32:47.651Z,8.80
2023-03-12T19:35:16.936Z,6.05
2023-03-12T19:37:45.225Z,8.02
2023-03-12T19:40:14.556Z,5.18
2023-03-12T19:42:42.749Z,3.65
2023-03-12T19:45:11.986Z,5.38
2023-03-12T19:47:40.517Z,6.78
2023-03-12T19:50:13.013Z,3.85
2023-03-12T19:52:41.317Z,6.35
2023-03-12T19:55:11.969Z,6.20
2023-03-12T19:57:40.936Z,6.68
2023-03-12T20:00:12.386Z,8.27
2023-03-12T20:02:41.535Z,5.72
2023-03-12T20:05:11.828Z,6.82
2023-03-12T20:07:40.196Z,5.03
2023-03-12T20:10:11.276Z,4.95
2023-03-12T20:12:40.517Z,9.07
2023-03-12T20:15:09.821Z,6.35
2023-03-12T20:17:38.676Z,3.45
2023-03-12T20:20:08.949Z,3.67
2023-03-12T20:22:38.510Z,4.32
2023-03-12T20:25:07.949Z,6.38
2023-03-12T20:27:37.262Z,4.65
2023-03-12T20:30:06.873Z,4.55
2023-03-12T20:32:35.164Z,7.80
2023-03-12T20:35:04.279Z,5.15
2023-03-12T20:37:32.440Z,5.05
2023-03-12T20:40:02.168Z,4.20
2023-03-12T20:42:30.354Z,4.32
2023-03-12T20:44:58.739Z,2.88
2023-03-12T20:47:27.157Z,5.05
2023-03-12T20:49:55.381Z,6.78
2023-03-12T20:52:23.620Z,5.15
2023-03-12T20:54:51.840Z,5.18
2023-03-12T20:57:21.403Z,4.45
2023-03-12T20:59:50.280Z,4.55
2023-03-12T21:02:19.194Z,4.03
2023-03-12T21:04:49.540Z,5.88
2023-03-12T21:07:17.707Z,6.93
2023-03-12T21:09:45.757Z,8.02
2023-03-12T21:12:14.651Z,8.48
2023-03-12T21:14:44.508Z,4.88
2023-03-12T21:17:14.410Z,4.13
2023-03-12T21:19:43.403Z,7.50
2023-03-12T21:22:11.674Z,3.45
2023-03-12T21:24:39.811Z,7.75
2023-03-12T21:27:11.501Z,10.70
2023-03-12T21:29:40.526Z,3.90
2023-03-12T21:32:10.509Z,3.70
2023-03-12T21:34:38.760Z,3.00
2023-03-12T21:37:07.093Z,6.30
2023-03-12T21:39:36.247Z,5.70
2023-03-12T21:42:04.753Z,3.25
2023-03-12T21:44:33.136Z,3.15
2023-03-12T21:47:01.088Z,3.45
2023-03-12T21:49:30.831Z,10.63
2023-03-12T21:51:59.226Z,4.05
2023-03-12T21:54:28.112Z,2.95
2023-03-12T21:56:56.292Z,6.53
2023-03-12T21:59:24.556Z,3.70
2023-03-12T22:01:53.075Z,7.82
2023-03-12T22:04:21.442Z,5.13
2023-03-12T22:06:51.078Z,10.43
2023-03-12T22:09:20.028Z,5.72
2023-03-12T22:11:48.353Z,4.88
2023-03-12T22:14:16.601Z,4.15
2023-03-12T22:16:44.865Z,4.28
2023-03-12T22:19:13.077Z,2.25
2023-03-12T22:21:42.566Z,4.28
2023-03-12T22:24:12.851Z,3.63
2023-03-12T22:26:41.128Z,6.32
2023-03-12T22:29:11.186Z,4.63
2023-03-12T22:31:39.423Z,5.95
2023-03-12T22:34:07.603Z,5.55
2023-03-12T22:36:35.785Z,5.88
2023-03-12T22:39:04.133Z,4.90
2023-03-12T22:41:34.057Z,8.25
2023-03-12T22:44:05.320Z,2.40
2023-03-12T22:46:33.959Z,9.68
2023-03-12T22:49:05.010Z,4.45
2023-03-12T22:51:34.712Z,2.50
2023-03-12T22:54:03.108Z,2.67
2023-03-12T22:56:31.444Z,2.25
2023-03-12T22:59:01.332Z,4.65
2023-03-12T23:01:29.913Z,3.03
2023-03-12T23:03:58.264Z,3.65
2023-03-12T23:06:30.047Z,2.22
2023-03-12T23:08:58.747Z,3.25
2023-03-12T23:11:28.231Z,3.13
2023-03-12T23:13:56.841Z,7.00
2023-03-12T23:16:28.687Z,4.35
2023-03-12T23:18:57.347Z,3.40
2023-03-12T23:21:26.600Z,7.65
2023-03-12T23:23:55.346Z,1.83
2023-03-12T23:26:26.618Z,3.75
2023-03-12T23:28:55.678Z,4.97
2023-03-12T23:31:24.686Z,4.38
2023-03-12T23:33:54.387Z,3.15
2023-03-12T23:36:24.674Z,6.15
2023-03-12T23:38:53.195Z,2.78
2023-03-12T23:41:23.381Z,3.00
2023-03-12T23:43:52.437Z,8.73
2023-03-12T23:46:21.178Z,3.67
2023-03-12T23:48:49.953Z,6.28
2023-03-12T23:51:21.182Z,4.95
2023-03-12T23:53:50.829Z,4.40
2023-03-12T23:56:21.350Z,4.07
2023-03-12T23:58:51.676Z,6.78
